Time;durP1;ratioP1;P1;durP2;ratioP2;P2;SDS_P1;SDS_P2;PMS_P1;PMS_P2;Temp;Humidity;BMP_temperature;BMP_pressure;BME280_temperature;BME280_humidity;BME280_pressure;Samples;Min_cycle;Max_cycle;Signal;HPM_P1;HPM_P2
2020/12/08 00:00:53;;;;;;;3.43;2.50;;;;;;;;;;731788;190;919145;-66
2020/12/08 00:03:19;;;;;;;3.97;2.47;;;;;;;;;;732897;190;918119;-65
2020/12/08 00:05:45;;;;;;;3.60;2.30;;;;;;;;;;727364;190;914902;-65
2020/12/08 00:08:11;;;;;;;3.40;2.30;;;;;;;;;;733274;190;915384;-65
2020/12/08 00:10:36;;;;;;;4.57;2.97;;;;;;;;;;718395;190;943914;-64
2020/12/08 00:13:02;;;;;;;3.42;2.37;;;;;;;;;;725960;190;919558;-66
2020/12/08 00:15:28;;;;;;;4.97;2.03;;;;;;;;;;726844;190;919568;-64
2020/12/08 00:17:54;;;;;;;3.93;2.60;;;;;;;;;;737378;189;918113;-65
2020/12/08 00:20:20;;;;;;;3.50;2.20;;;;;;;;;;725932;189;916170;-65
2020/12/08 00:22:46;;;;;;;2.80;1.97;;;;;;;;;;723209;190;915771;-64
2020/12/08 00:25:12;;;;;;;4.43;2.60;;;;;;;;;;736815;190;916462;-66
2020/12/08 00:27:38;;;;;;;2.83;1.83;;;;;;;;;;732264;189;915987;-65
2020/12/08 00:30:05;;;;;;;6.40;2.13;;;;;;;;;;732892;190;916061;-65
2020/12/08 00:32:31;;;;;;;9.13;2.17;;;;;;;;;;733634;189;914356;-65
2020/12/08 00:34:57;;;;;;;3.77;2.37;;;;;;;;;;730080;190;1042601;-65
2020/12/08 00:37:23;;;;;;;3.70;2.37;;;;;;;;;;729478;189;916164;-65
2020/12/08 00:39:48;;;;;;;3.93;2.20;;;;;;;;;;728704;190;915067;-67
2020/12/08 00:42:14;;;;;;;3.30;2.10;;;;;;;;;;724268;190;2133598;-65
2020/12/08 00:44:40;;;;;;;3.70;2.50;;;;;;;;;;730057;190;927425;-65
2020/12/08 00:47:06;;;;;;;3.20;2.30;;;;;;;;;;728960;190;918976;-64
2020/12/08 00:49:32;;;;;;;2.80;1.70;;;;;;;;;;736496;190;918742;-65
2020/12/08 00:51:58;;;;;;;2.73;2.13;;;;;;;;;;727910;189;918975;-65
2020/12/08 00:54:24;;;;;;;2.92;2.40;;;;;;;;;;728805;190;918728;-65
2020/12/08 00:56:49;;;;;;;3.27;2.40;;;;;;;;;;733126;189;919148;-65
2020/12/08 00:59:15;;;;;;;3.00;2.10;;;;;;;;;;730493;189;919146;-65
2020/12/08 01:01:41;;;;;;;4.53;2.75;;;;;;;;;;727073;189;1056650;-65
2020/12/08 01:04:09;;;;;;;4.40;2.57;;;;;;;;;;731410;190;914256;-65
2020/12/08 01:06:34;;;;;;;3.63;2.50;;;;;;;;;;728843;188;919336;-65
2020/12/08 01:09:00;;;;;;;4.18;2.50;;;;;;;;;;727973;189;918771;-65
2020/12/08 01:11:26;;;;;;;3.50;2.07;;;;;;;;;;731888;190;918940;-64
2020/12/08 01:13:52;;;;;;;3.30;2.40;;;;;;;;;;730418;190;918808;-64
2020/12/08 01:16:18;;;;;;;4.37;3.17;;;;;;;;;;728731;190;919155;-65
2020/12/08 01:18:44;;;;;;;5.00;2.73;;;;;;;;;;725999;190;919225;-64
2020/12/08 01:21:09;;;;;;;3.03;2.10;;;;;;;;;;733386;190;919410;-65
2020/12/08 01:23:35;;;;;;;4.57;3.23;;;;;;;;;;730998;189;1059481;-65
2020/12/08 01:26:01;;;;;;;7.67;3.80;;;;;;;;;;732862;189;919437;-65
2020/12/08 01:28:27;;;;;;;5.17;3.13;;;;;;;;;;732537;190;919385;-64
2020/12/08 01:30:53;;;;;;;5.60;3.80;;;;;;;;;;733568;189;919080;-65
2020/12/08 01:33:19;;;;;;;5.47;3.43;;;;;;;;;;728702;190;919231;-65
2020/12/08 01:35:44;;;;;;;4.80;3.57;;;;;;;;;;738040;189;918445;-65
2020/12/08 01:38:10;;;;;;;8.73;4.20;;;;;;;;;;728783;189;919273;-65
2020/12/08 01:40:36;;;;;;;5.55;3.80;;;;;;;;;;729619;189;918815;-65
2020/12/08 01:43:05;;;;;;;5.57;3.80;;;;;;;;;;730602;189;991478;-68
2020/12/08 01:45:31;;;;;;;9.83;4.37;;;;;;;;;;733932;190;918377;-66
2020/12/08 01:47:57;;;;;;;6.30;4.30;;;;;;;;;;728718;189;973543;-65
2020/12/08 01:50:23;;;;;;;6.50;4.10;;;;;;;;;;724048;190;1033437;-65
2020/12/08 01:52:49;;;;;;;9.90;5.93;;;;;;;;;;734982;190;919350;-65
2020/12/08 01:55:15;;;;;;;8.97;4.77;;;;;;;;;;727695;190;941586;-66
2020/12/08 01:57:40;;;;;;;7.23;4.60;;;;;;;;;;733918;190;919287;-66
2020/12/08 02:00:06;;;;;;;16.30;4.60;;;;;;;;;;730877;190;919802;-67
2020/12/08 02:02:32;;;;;;;4.97;3.80;;;;;;;;;;730174;190;919806;-65
2020/12/08 02:04:58;;;;;;;6.70;3.90;;;;;;;;;;722053;190;918400;-66
2020/12/08 02:07:24;;;;;;;8.87;4.23;;;;;;;;;;728355;190;918875;-65
2020/12/08 02:09:50;;;;;;;5.32;3.80;;;;;;;;;;733501;189;918859;-68
2020/12/08 02:12:15;;;;;;;5.80;3.70;;;;;;;;;;731469;190;919647;-66
2020/12/08 02:14:41;;;;;;;5.93;3.70;;;;;;;;;;730312;190;922849;-66
2020/12/08 02:17:07;;;;;;;5.70;3.37;;;;;;;;;;737628;190;919794;-66
2020/12/08 02:19:34;;;;;;;5.70;3.50;;;;;;;;;;727688;190;919226;-63
2020/12/08 02:21:59;;;;;;;5.60;3.20;;;;;;;;;;729381;190;920379;-67
2020/12/08 02:24:25;;;;;;;5.70;3.33;;;;;;;;;;735427;190;917844;-65
2020/12/08 02:26:51;;;;;;;4.70;3.27;;;;;;;;;;728087;190;917227;-66
2020/12/08 02:29:17;;;;;;;8.53;3.80;;;;;;;;;;731617;190;918638;-66
2020/12/08 02:31:43;;;;;;;5.97;3.90;;;;;;;;;;722030;189;946810;-66
2020/12/08 02:34:09;;;;;;;5.63;4.00;;;;;;;;;;729100;190;917066;-66
2020/12/08 02:36:34;;;;;;;5.60;3.90;;;;;;;;;;728749;189;922102;-66
2020/12/08 02:39:01;;;;;;;6.90;4.00;;;;;;;;;;732651;190;918580;-65
2020/12/08 02:41:26;;;;;;;9.80;4.50;;;;;;;;;;728460;190;917965;-66
2020/12/08 02:43:53;;;;;;;6.32;4.68;;;;;;;;;;731133;190;919124;-66
2020/12/08 02:46:18;;;;;;;8.67;4.97;;;;;;;;;;728053;190;919834;-68
2020/12/08 02:48:44;;;;;;;5.40;3.47;;;;;;;;;;738563;190;918482;-65
2020/12/08 02:51:10;;;;;;;5.60;4.20;;;;;;;;;;727726;190;994212;-65
2020/12/08 02:53:36;;;;;;;6.63;4.00;;;;;;;;;;722116;190;928580;-66
2020/12/08 02:56:01;;;;;;;6.15;3.90;;;;;;;;;;731378;190;919884;-67
2020/12/08 02:58:27;;;;;;;6.17;3.77;;;;;;;;;;730849;190;916600;-66
2020/12/08 03:00:54;;;;;;;5.30;3.70;;;;;;;;;;730710;190;917653;-66
2020/12/08 03:03:19;;;;;;;4.67;3.63;;;;;;;;;;733590;190;1017965;-66
2020/12/08 03:05:45;;;;;;;5.50;3.37;;;;;;;;;;730872;190;918449;-65
2020/12/08 03:08:11;;;;;;;5.78;3.83;;;;;;;;;;723915;190;918843;-64
2020/12/08 03:10:37;;;;;;;5.60;4.10;;;;;;;;;;725909;190;918691;-64
2020/12/08 03:13:02;;;;;;;6.97;4.13;;;;;;;;;;729580;190;1051591;-66
2020/12/08 03:15:28;;;;;;;6.27;4.20;;;;;;;;;;731325;189;919593;-64
2020/12/08 03:17:54;;;;;;;6.40;4.30;;;;;;;;;;722698;189;918611;-66
2020/12/08 03:20:20;;;;;;;7.03;4.50;;;;;;;;;;736927;188;918808;-66
2020/12/08 03:22:46;;;;;;;7.37;4.53;;;;;;;;;;730565;189;915257;-65
2020/12/08 03:25:12;;;;;;;6.67;3.93;;;;;;;;;;732665;190;915468;-66
2020/12/08 03:27:37;;;;;;;6.00;4.90;;;;;;;;;;734043;190;914816;-66
2020/12/08 03:30:03;;;;;;;7.23;4.60;;;;;;;;;;732928;189;919149;-65
2020/12/08 03:32:29;;;;;;;6.55;4.57;;;;;;;;;;725978;189;1707045;-64
2020/12/08 03:34:55;;;;;;;6.40;4.43;;;;;;;;;;736811;189;918576;-65
2020/12/08 03:37:21;;;;;;;7.10;4.30;;;;;;;;;;727924;190;918483;-66
2020/12/08 03:39:47;;;;;;;6.65;4.65;;;;;;;;;;727870;189;918767;-66
2020/12/08 03:42:13;;;;;;;7.40;4.43;;;;;;;;;;727627;190;919246;-63
2020/12/08 03:44:39;;;;;;;6.60;5.30;;;;;;;;;;728039;189;918088;-65
2020/12/08 03:47:05;;;;;;;8.93;4.90;;;;;;;;;;729401;190;982475;-65
2020/12/08 03:49:30;;;;;;;9.70;5.80;;;;;;;;;;726436;190;920964;-67
2020/12/08 03:51:56;;;;;;;7.10;5.00;;;;;;;;;;738071;190;910868;-67
2020/12/08 03:54:22;;;;;;;10.90;6.90;;;;;;;;;;718990;190;1196035;-66
2020/12/08 03:56:48;;;;;;;7.80;5.70;;;;;;;;;;723500;189;920426;-67
2020/12/08 03:59:16;;;;;;;9.03;4.73;;;;;;;;;;731144;190;940098;-66
2020/12/08 04:01:40;;;;;;;8.17;5.13;;;;;;;;;;730893;190;918914;-65
2020/12/08 04:04:06;;;;;;;9.47;4.37;;;;;;;;;;729204;190;918925;-66
2020/12/08 04:06:31;;;;;;;6.53;4.73;;;;;;;;;;731835;190;919164;-66
2020/12/08 04:08:57;;;;;;;7.53;4.80;;;;;;;;;;725663;190;918893;-66
2020/12/08 04:11:23;;;;;;;6.37;4.53;;;;;;;;;;730845;190;919288;-65
2020/12/08 04:13:51;;;;;;;7.05;4.90;;;;;;;;;;730521;190;918222;-66
2020/12/08 04:16:17;;;;;;;4.70;3.20;;;;;;;;;;728998;190;918783;-66
2020/12/08 04:18:43;;;;;;;5.97;3.50;;;;;;;;;;727906;189;1021166;-66
2020/12/08 04:21:09;;;;;;;4.70;3.10;;;;;;;;;;725324;190;919024;-66
2020/12/08 04:23:35;;;;;;;6.80;4.23;;;;;;;;;;733523;190;918918;-67
2020/12/08 04:26:01;;;;;;;4.63;4.10;;;;;;;;;;729589;190;919092;-66
2020/12/08 04:28:26;;;;;;;5.20;3.20;;;;;;;;;;730919;190;918729;-65
2020/12/08 04:30:52;;;;;;;5.40;3.37;;;;;;;;;;733616;189;1002946;-65
2020/12/08 04:33:18;;;;;;;4.87;2.97;;;;;;;;;;733750;189;918794;-66
2020/12/08 04:35:44;;;;;;;7.50;3.60;;;;;;;;;;731051;188;918945;-66
2020/12/08 04:38:10;;;;;;;4.77;3.20;;;;;;;;;;738230;189;854501;-66
2020/12/08 04:40:36;;;;;;;4.80;3.60;;;;;;;;;;727459;189;918869;-65
2020/12/08 04:43:01;;;;;;;4.37;3.42;;;;;;;;;;730744;189;916536;-65
2020/12/08 04:45:27;;;;;;;7.17;3.73;;;;;;;;;;729251;190;919020;-66
2020/12/08 04:47:53;;;;;;;5.03;3.93;;;;;;;;;;721219;193;919343;-65
2020/12/08 04:50:19;;;;;;;6.17;4.10;;;;;;;;;;725286;190;918566;-67
2020/12/08 04:52:45;;;;;;;5.63;3.57;;;;;;;;;;728356;188;919057;-65
2020/12/08 04:55:11;;;;;;;6.20;4.40;;;;;;;;;;735999;190;918301;-66
2020/12/08 04:57:37;;;;;;;5.30;3.80;;;;;;;;;;730614;189;918858;-66
2020/12/08 05:00:05;;;;;;;5.10;3.70;;;;;;;;;;730430;189;976760;-68
2020/12/08 05:02:31;;;;;;;4.93;3.57;;;;;;;;;;732648;189;937598;-66
2020/12/08 05:04:57;;;;;;;5.62;3.33;;;;;;;;;;731038;190;918378;-66
2020/12/08 05:07:26;;;;;;;4.43;3.07;;;;;;;;;;732998;189;890355;-67
2020/12/08 05:09:51;;;;;;;6.27;3.60;;;;;;;;;;734614;189;918201;-65
2020/12/08 05:12:20;;;;;;;5.43;3.57;;;;;;;;;;730386;190;919042;-66
2020/12/08 05:14:46;;;;;;;4.80;3.60;;;;;;;;;;735735;190;632275;-65
2020/12/08 05:17:12;;;;;;;9.57;6.07;;;;;;;;;;728951;190;919191;-66
2020/12/08 05:19:38;;;;;;;12.33;7.00;;;;;;;;;;739494;190;854121;-66
2020/12/08 05:22:04;;;;;;;12.33;6.53;;;;;;;;;;722797;189;2280371;-66
2020/12/08 05:24:30;;;;;;;12.67;6.90;;;;;;;;;;730402;190;918982;-66
2020/12/08 05:26:57;;;;;;;13.60;8.47;;;;;;;;;;731929;190;919462;-68
2020/12/08 05:29:23;;;;;;;12.03;6.77;;;;;;;;;;731817;190;919337;-65
2020/12/08 05:31:50;;;;;;;13.33;7.87;;;;;;;;;;728665;190;919100;-66
2020/12/08 05:34:15;;;;;;;11.13;6.93;;;;;;;;;;727112;190;919636;-67
2020/12/08 05:36:41;;;;;;;11.53;7.30;;;;;;;;;;735460;190;896509;-66
2020/12/08 05:39:07;;;;;;;13.80;7.05;;;;;;;;;;728073;189;918999;-66
2020/12/08 05:41:32;;;;;;;15.43;8.50;;;;;;;;;;733943;190;919172;-67
2020/12/08 05:44:00;;;;;;;15.57;9.50;;;;;;;;;;735995;189;918894;-66
2020/12/08 05:46:26;;;;;;;16.40;8.60;;;;;;;;;;733162;189;923887;-66
2020/12/08 05:48:52;;;;;;;11.67;6.60;;;;;;;;;;730142;189;918923;-67
2020/12/08 05:51:18;;;;;;;7.90;4.93;;;;;;;;;;735311;189;919237;-66
2020/12/08 05:53:43;;;;;;;9.97;6.40;;;;;;;;;;728913;189;919169;-67
2020/12/08 05:56:09;;;;;;;10.23;5.93;;;;;;;;;;729395;190;919601;-66
2020/12/08 05:58:35;;;;;;;7.50;5.03;;;;;;;;;;726216;190;919244;-66
2020/12/08 06:01:03;;;;;;;6.87;4.37;;;;;;;;;;730097;190;918338;-66
2020/12/08 06:03:29;;;;;;;7.40;4.93;;;;;;;;;;725708;189;1256605;-65
2020/12/08 06:05:54;;;;;;;11.70;6.60;;;;;;;;;;729287;190;921275;-65
2020/12/08 06:08:24;;;;;;;8.82;6.30;;;;;;;;;;731669;190;919024;-68
2020/12/08 06:10:49;;;;;;;11.13;6.20;;;;;;;;;;730360;190;918934;-67
2020/12/08 06:13:21;;;;;;;8.90;5.90;;;;;;;;;;730706;189;918674;-65
2020/12/08 06:15:47;;;;;;;8.17;5.73;;;;;;;;;;728600;189;917922;-66
2020/12/08 06:18:13;;;;;;;8.13;4.97;;;;;;;;;;736108;190;919159;-66
2020/12/08 06:20:38;;;;;;;8.23;5.63;;;;;;;;;;720388;190;918455;-67
2020/12/08 06:23:05;;;;;;;9.17;5.90;;;;;;;;;;727948;190;918773;-65
2020/12/08 06:25:30;;;;;;;10.00;6.63;;;;;;;;;;730415;189;919160;-66
2020/12/08 06:27:57;;;;;;;8.33;5.70;;;;;;;;;;729790;190;920608;-66
2020/12/08 06:30:22;;;;;;;8.80;5.97;;;;;;;;;;727766;190;919297;-66
2020/12/08 06:32:48;;;;;;;18.13;5.80;;;;;;;;;;734416;190;915135;-66
2020/12/08 06:35:13;;;;;;;13.48;7.87;;;;;;;;;;726227;189;917481;-67
2020/12/08 06:37:43;;;;;;;13.17;7.23;;;;;;;;;;731240;189;915171;-66
2020/12/08 06:40:09;;;;;;;23.50;12.60;;;;;;;;;;724962;190;915954;-66
2020/12/08 06:42:35;;;;;;;26.70;13.43;;;;;;;;;;736258;190;919894;-66
2020/12/08 06:45:04;;;;;;;13.90;8.50;;;;;;;;;;726729;190;918588;-67
2020/12/08 06:47:30;;;;;;;10.30;7.27;;;;;;;;;;735919;190;919036;-66
2020/12/08 06:49:57;;;;;;;11.13;6.47;;;;;;;;;;733082;190;916157;-67
2020/12/08 06:52:23;;;;;;;100.05;40.92;;;;;;;;;;724979;188;1827852;-67
2020/12/08 06:54:54;;;;;;;29.60;16.77;;;;;;;;;;734458;189;916238;-66
2020/12/08 06:57:20;;;;;;;9.13;5.80;;;;;;;;;;733712;188;639645;-65
2020/12/08 06:59:46;;;;;;;7.80;5.10;;;;;;;;;;736998;190;857705;-66
2020/12/08 07:02:12;;;;;;;9.30;6.27;;;;;;;;;;730849;189;939662;-66
2020/12/08 07:04:38;;;;;;;29.73;14.57;;;;;;;;;;731283;189;919288;-66
2020/12/08 07:07:03;;;;;;;10.20;6.03;;;;;;;;;;732110;190;919425;-66
2020/12/08 07:09:30;;;;;;;9.40;5.63;;;;;;;;;;734432;190;919407;-66
2020/12/08 07:11:59;;;;;;;6.22;4.85;;;;;;;;;;733219;189;916946;-66
2020/12/08 07:14:25;;;;;;;7.20;5.13;;;;;;;;;;730362;189;918450;-64
2020/12/08 07:16:51;;;;;;;8.50;6.00;;;;;;;;;;726875;190;918958;-66
2020/12/08 07:19:17;;;;;;;8.90;5.57;;;;;;;;;;727126;190;918566;-65
2020/12/08 07:21:43;;;;;;;7.10;5.40;;;;;;;;;;727990;190;920542;-65
2020/12/08 07:24:09;;;;;;;9.30;5.67;;;;;;;;;;736882;190;918003;-64
2020/12/08 07:26:35;;;;;;;18.63;10.00;;;;;;;;;;729804;190;918529;-66
2020/12/08 07:29:00;;;;;;;114.80;55.07;;;;;;;;;;730231;189;918715;-65
2020/12/08 07:31:27;;;;;;;18.93;10.73;;;;;;;;;;735898;189;918879;-66
2020/12/08 07:33:52;;;;;;;16.40;9.90;;;;;;;;;;730845;189;919445;-64
2020/12/08 07:36:21;;;;;;;17.58;9.55;;;;;;;;;;733007;190;1021211;-66
2020/12/08 07:38:50;;;;;;;10.77;7.80;;;;;;;;;;727744;189;919306;-64
2020/12/08 07:41:16;;;;;;;12.13;8.30;;;;;;;;;;731145;190;919098;-66
2020/12/08 07:43:42;;;;;;;15.60;8.50;;;;;;;;;;727470;189;918796;-66
2020/12/08 07:46:08;;;;;;;15.23;8.90;;;;;;;;;;728592;189;918826;-66
2020/12/08 07:48:34;;;;;;;16.90;9.43;;;;;;;;;;735349;189;919340;-65
2020/12/08 07:51:00;;;;;;;11.30;7.23;;;;;;;;;;734446;189;919389;-66
2020/12/08 07:53:26;;;;;;;13.23;8.75;;;;;;;;;;730763;189;918234;-66
2020/12/08 07:55:51;;;;;;;13.33;8.60;;;;;;;;;;735417;189;918730;-65
2020/12/08 07:58:17;;;;;;;15.10;9.83;;;;;;;;;;729219;190;919185;-66
2020/12/08 08:00:43;;;;;;;15.50;10.57;;;;;;;;;;731497;190;919066;-67
2020/12/08 08:03:10;;;;;;;13.52;9.70;;;;;;;;;;731052;190;919243;-64
2020/12/08 08:05:36;;;;;;;12.80;8.97;;;;;;;;;;733003;189;1021095;-66
2020/12/08 08:08:02;;;;;;;20.27;10.50;;;;;;;;;;728946;189;919337;-65
2020/12/08 08:10:28;;;;;;;17.30;11.20;;;;;;;;;;730756;189;918658;-66
2020/12/08 08:12:53;;;;;;;14.73;9.80;;;;;;;;;;735692;189;918964;-65
2020/12/08 08:15:19;;;;;;;15.90;10.53;;;;;;;;;;717229;188;3626636;-66
2020/12/08 08:17:45;;;;;;;20.50;11.47;;;;;;;;;;731938;189;918700;-66
2020/12/08 08:20:11;;;;;;;17.63;10.83;;;;;;;;;;733012;190;918937;-65
2020/12/08 08:22:37;;;;;;;19.97;11.10;;;;;;;;;;733030;190;918660;-66
2020/12/08 08:25:03;;;;;;;15.93;10.50;;;;;;;;;;728208;190;919693;-66
2020/12/08 08:27:29;;;;;;;17.90;10.47;;;;;;;;;;733649;190;919099;-65
2020/12/08 08:29:54;;;;;;;18.60;11.20;;;;;;;;;;727866;189;926477;-65
2020/12/08 08:32:20;;;;;;;17.80;11.87;;;;;;;;;;729524;190;919407;-66
2020/12/08 08:34:46;;;;;;;23.30;13.07;;;;;;;;;;727523;190;919356;-64
2020/12/08 08:37:13;;;;;;;21.53;13.60;;;;;;;;;;730690;190;918111;-65
2020/12/08 08:39:38;;;;;;;30.80;22.60;;;;;;;;;;726168;189;918666;-65
2020/12/08 08:42:04;;;;;;;30.70;20.10;;;;;;;;;;730032;189;918972;-65
2020/12/08 08:44:30;;;;;;;21.90;16.33;;;;;;;;;;733559;189;918623;-65
2020/12/08 08:46:56;;;;;;;29.17;17.33;;;;;;;;;;731784;189;918586;-65
2020/12/08 08:49:22;;;;;;;29.87;18.30;;;;;;;;;;729951;189;918961;-65
2020/12/08 08:51:48;;;;;;;25.07;16.90;;;;;;;;;;732863;189;918729;-65
2020/12/08 08:54:13;;;;;;;32.30;22.40;;;;;;;;;;730994;190;921558;-64
2020/12/08 08:56:40;;;;;;;25.83;18.83;;;;;;;;;;729021;189;919779;-66
2020/12/08 08:59:06;;;;;;;23.13;14.47;;;;;;;;;;733299;190;918687;-64
2020/12/08 09:01:32;;;;;;;50.90;21.70;;;;;;;;;;727561;189;917911;-65
2020/12/08 09:03:58;;;;;;;104.27;43.57;;;;;;;;;;727327;190;918926;-65
2020/12/08 09:06:24;;;;;;;100.18;39.83;;;;;;;;;;726743;189;917766;-64
2020/12/08 09:08:50;;;;;;;86.97;36.50;;;;;;;;;;734631;190;919135;-64
2020/12/08 09:11:16;;;;;;;55.27;26.27;;;;;;;;;;728677;190;918832;-65
2020/12/08 09:13:42;;;;;;;35.30;19.20;;;;;;;;;;730354;190;921052;-64
2020/12/08 09:16:08;;;;;;;24.47;15.17;;;;;;;;;;732420;189;918590;-65
2020/12/08 09:18:34;;;;;;;15.77;11.23;;;;;;;;;;727798;189;918529;-65
2020/12/08 09:21:00;;;;;;;27.52;17.40;;;;;;;;;;717972;188;1186908;-64
2020/12/08 09:23:25;;;;;;;28.93;16.17;;;;;;;;;;736735;190;915521;-64
2020/12/08 09:25:52;;;;;;;21.42;10.55;;;;;;;;;;724463;190;916121;-65
2020/12/08 09:28:17;;;;;;;16.27;12.17;;;;;;;;;;728092;190;919450;-65
2020/12/08 09:30:44;;;;;;;19.07;11.73;;;;;;;;;;730504;190;919236;-64
2020/12/08 09:33:09;;;;;;;11.90;8.03;;;;;;;;;;731534;190;917688;-65
2020/12/08 09:35:35;;;;;;;22.70;12.47;;;;;;;;;;729203;190;919439;-65
2020/12/08 09:38:01;;;;;;;34.83;19.80;;;;;;;;;;727797;190;919034;-64
2020/12/08 09:40:27;;;;;;;19.62;12.35;;;;;;;;;;736047;190;918688;-64
2020/12/08 09:42:53;;;;;;;44.63;28.47;;;;;;;;;;719264;190;1138329;-64
2020/12/08 09:45:18;;;;;;;24.85;17.10;;;;;;;;;;727346;190;919167;-64
2020/12/08 09:47:44;;;;;;;16.50;10.40;;;;;;;;;;730425;190;919421;-64
2020/12/08 09:50:11;;;;;;;12.13;8.30;;;;;;;;;;730627;190;921496;-64
2020/12/08 09:52:36;;;;;;;10.23;7.13;;;;;;;;;;730168;190;918669;-64
2020/12/08 09:55:02;;;;;;;6.27;4.97;;;;;;;;;;736462;190;918559;-65
2020/12/08 09:57:28;;;;;;;5.60;4.53;;;;;;;;;;725301;189;919443;-64
2020/12/08 09:59:54;;;;;;;6.60;3.50;;;;;;;;;;729267;189;919136;-65
2020/12/08 10:02:23;;;;;;;5.10;3.47;;;;;;;;;;727473;190;1066995;-66
2020/12/08 10:04:47;;;;;;;5.27;3.50;;;;;;;;;;725902;190;918612;-65
2020/12/08 10:07:15;;;;;;;9.03;3.87;;;;;;;;;;732348;189;919371;-64
2020/12/08 10:09:39;;;;;;;5.73;3.50;;;;;;;;;;725633;189;920442;-64
2020/12/08 10:12:05;;;;;;;5.83;3.23;;;;;;;;;;735412;190;918812;-63
2020/12/08 10:14:32;;;;;;;5.13;3.10;;;;;;;;;;730506;190;917840;-64
2020/12/08 10:16:57;;;;;;;4.60;3.37;;;;;;;;;;730592;190;919221;-65
2020/12/08 10:19:23;;;;;;;5.33;3.47;;;;;;;;;;732470;190;918547;-65
2020/12/08 10:21:50;;;;;;;5.15;2.83;;;;;;;;;;731303;190;919628;-65
2020/12/08 10:24:17;;;;;;;5.00;2.80;;;;;;;;;;727711;190;920688;-65
2020/12/08 10:26:42;;;;;;;4.10;2.63;;;;;;;;;;729785;190;918751;-66
2020/12/08 10:29:08;;;;;;;6.60;3.53;;;;;;;;;;732071;189;915311;-65
2020/12/08 10:31:33;;;;;;;5.80;2.40;;;;;;;;;;730709;190;914312;-65
2020/12/08 10:33:59;;;;;;;4.00;2.90;;;;;;;;;;724252;190;1085920;-65
2020/12/08 10:36:26;;;;;;;4.10;3.07;;;;;;;;;;737700;190;918866;-65
2020/12/08 10:38:52;;;;;;;15.50;3.20;;;;;;;;;;729534;190;918816;-66
2020/12/08 10:41:18;;;;;;;4.03;2.53;;;;;;;;;;731445;190;918485;-65
2020/12/08 10:43:44;;;;;;;4.53;2.97;;;;;;;;;;735351;189;919963;-63
2020/12/08 10:46:09;;;;;;;4.03;2.77;;;;;;;;;;728893;190;919919;-65
2020/12/08 10:48:35;;;;;;;4.47;2.95;;;;;;;;;;730346;189;920024;-65
2020/12/08 10:51:01;;;;;;;4.30;2.77;;;;;;;;;;732957;189;918380;-65
2020/12/08 10:53:28;;;;;;;9.90;3.40;;;;;;;;;;730406;190;922469;-64
2020/12/08 10:55:54;;;;;;;3.70;2.40;;;;;;;;;;728087;189;916366;-65
2020/12/08 10:58:20;;;;;;;3.60;2.80;;;;;;;;;;729608;189;916399;-65
2020/12/08 11:00:46;;;;;;;4.12;2.87;;;;;;;;;;734541;189;916215;-65
2020/12/08 11:03:11;;;;;;;3.70;2.83;;;;;;;;;;730098;189;915290;-65
2020/12/08 11:05:37;;;;;;;7.80;2.50;;;;;;;;;;727912;190;919774;-65
2020/12/08 11:08:03;;;;;;;4.27;2.53;;;;;;;;;;730586;190;919275;-64
2020/12/08 11:10:29;;;;;;;4.40;2.80;;;;;;;;;;724293;189;918327;-65
2020/12/08 11:12:55;;;;;;;3.03;2.23;;;;;;;;;;722701;190;918965;-66
2020/12/08 11:15:21;;;;;;;4.00;2.87;;;;;;;;;;732165;189;918983;-66
2020/12/08 11:17:47;;;;;;;4.50;2.85;;;;;;;;;;730706;190;918751;-65
2020/12/08 11:20:13;;;;;;;4.00;3.07;;;;;;;;;;730707;190;919805;-66
2020/12/08 11:22:39;;;;;;;3.10;2.67;;;;;;;;;;731957;189;917553;-64
2020/12/08 11:25:05;;;;;;;4.80;3.10;;;;;;;;;;724575;190;918871;-64
2020/12/08 11:27:31;;;;;;;3.77;2.93;;;;;;;;;;728749;190;918470;-64
2020/12/08 11:29:56;;;;;;;4.37;2.93;;;;;;;;;;729950;189;919249;-64
2020/12/08 11:32:22;;;;;;;3.37;2.70;;;;;;;;;;732698;189;929336;-66
2020/12/08 11:34:48;;;;;;;6.40;3.50;;;;;;;;;;727885;189;919145;-66
2020/12/08 11:37:14;;;;;;;8.10;3.33;;;;;;;;;;725827;189;919059;-64
2020/12/08 11:39:40;;;;;;;7.63;3.20;;;;;;;;;;736601;189;918549;-64
2020/12/08 11:42:07;;;;;;;3.85;2.50;;;;;;;;;;733136;188;918557;-65
2020/12/08 11:44:32;;;;;;;3.50;2.60;;;;;;;;;;725736;191;919305;-64
2020/12/08 11:46:58;;;;;;;4.80;2.83;;;;;;;;;;722846;193;919685;-67
2020/12/08 11:49:24;;;;;;;4.90;2.80;;;;;;;;;;731655;190;918674;-65
2020/12/08 11:51:50;;;;;;;5.50;3.37;;;;;;;;;;727789;189;1096715;-64
2020/12/08 11:54:16;;;;;;;6.85;2.72;;;;;;;;;;736146;190;919007;-65
2020/12/08 11:56:44;;;;;;;6.37;2.77;;;;;;;;;;734721;190;919892;-65
2020/12/08 11:59:11;;;;;;;5.90;2.73;;;;;;;;;;726678;190;919388;-65
2020/12/08 12:01:38;;;;;;;5.30;3.03;;;;;;;;;;725068;189;921053;-65
2020/12/08 12:04:04;;;;;;;3.23;2.80;;;;;;;;;;734845;190;919076;-64
2020/12/08 12:06:30;;;;;;;4.05;2.70;;;;;;;;;;730696;189;918741;-65
2020/12/08 12:08:56;;;;;;;5.13;3.40;;;;;;;;;;728379;190;919990;-65
2020/12/08 12:11:22;;;;;;;11.10;5.37;;;;;;;;;;736164;189;918990;-64
2020/12/08 12:13:48;;;;;;;6.93;3.57;;;;;;;;;;721393;189;2392995;-65
2020/12/08 12:16:14;;;;;;;4.27;3.37;;;;;;;;;;728210;190;919276;-64
2020/12/08 12:18:40;;;;;;;6.62;4.22;;;;;;;;;;728507;189;924135;-65
2020/12/08 12:21:06;;;;;;;3.90;3.27;;;;;;;;;;733146;190;919172;-64
2020/12/08 12:23:32;;;;;;;4.87;3.53;;;;;;;;;;727640;190;931553;-64
2020/12/08 12:25:58;;;;;;;6.07;4.10;;;;;;;;;;728633;189;919246;-63
2020/12/08 12:28:24;;;;;;;4.23;3.00;;;;;;;;;;733199;189;918371;-64
2020/12/08 12:30:50;;;;;;;5.60;3.53;;;;;;;;;;734653;190;919050;-65
2020/12/08 12:33:16;;;;;;;8.97;4.30;;;;;;;;;;734437;189;629380;-67
2020/12/08 12:35:42;;;;;;;3.80;3.40;;;;;;;;;;739266;189;629597;-65
2020/12/08 12:38:08;;;;;;;6.27;3.70;;;;;;;;;;733763;189;641435;-65
2020/12/08 12:40:34;;;;;;;5.20;4.20;;;;;;;;;;729600;190;919198;-65
2020/12/08 12:43:00;;;;;;;5.40;3.37;;;;;;;;;;723281;190;919012;-65
2020/12/08 12:45:26;;;;;;;5.70;4.30;;;;;;;;;;725113;190;919930;-64
2020/12/08 12:47:52;;;;;;;9.17;3.93;;;;;;;;;;728919;190;918887;-65
2020/12/08 12:50:18;;;;;;;5.17;4.40;;;;;;;;;;726379;190;918826;-65
2020/12/08 12:52:44;;;;;;;4.63;4.00;;;;;;;;;;738149;189;918999;-65
2020/12/08 12:55:10;;;;;;;6.10;3.85;;;;;;;;;;730165;190;940959;-65
2020/12/08 12:57:36;;;;;;;6.13;4.70;;;;;;;;;;731626;190;919385;-65
2020/12/08 13:00:04;;;;;;;4.77;4.07;;;;;;;;;;733089;189;938314;-65
2020/12/08 13:02:29;;;;;;;6.87;4.50;;;;;;;;;;732948;189;919143;-65
2020/12/08 13:04:55;;;;;;;7.03;4.57;;;;;;;;;;729677;190;919357;-65
2020/12/08 13:07:21;;;;;;;8.57;5.43;;;;;;;;;;734716;189;919284;-65
2020/12/08 13:09:47;;;;;;;5.10;4.60;;;;;;;;;;726319;189;919358;-65
2020/12/08 13:12:13;;;;;;;6.10;4.80;;;;;;;;;;728284;190;943035;-66
2020/12/08 13:14:39;;;;;;;5.80;4.70;;;;;;;;;;730463;189;919008;-65
2020/12/08 13:17:05;;;;;;;7.13;5.17;;;;;;;;;;729748;190;916239;-65
2020/12/08 13:19:32;;;;;;;6.50;4.90;;;;;;;;;;729041;189;921521;-65
2020/12/08 13:21:58;;;;;;;10.57;4.80;;;;;;;;;;727620;189;916336;-65
2020/12/08 13:24:24;;;;;;;4.87;4.37;;;;;;;;;;733126;190;916297;-64
2020/12/08 13:26:50;;;;;;;6.53;5.10;;;;;;;;;;729310;189;918894;-65
2020/12/08 13:29:17;;;;;;;6.33;4.83;;;;;;;;;;731256;189;916114;-64
2020/12/08 13:31:43;;;;;;;6.97;5.03;;;;;;;;;;732821;189;916125;-68
2020/12/08 13:34:09;;;;;;;6.83;5.13;;;;;;;;;;732331;190;916072;-65
2020/12/08 13:36:35;;;;;;;7.80;6.07;;;;;;;;;;727179;189;918916;-65
2020/12/08 13:39:02;;;;;;;8.75;6.05;;;;;;;;;;730831;190;918955;-64
2020/12/08 13:41:28;;;;;;;8.70;5.93;;;;;;;;;;730061;189;890113;-65
2020/12/08 13:43:54;;;;;;;8.90;7.03;;;;;;;;;;730849;189;918974;-65
2020/12/08 13:46:20;;;;;;;8.00;6.33;;;;;;;;;;727805;190;941377;-66
2020/12/08 13:48:46;;;;;;;9.77;6.60;;;;;;;;;;734268;190;918559;-64
2020/12/08 13:51:12;;;;;;;7.60;6.27;;;;;;;;;;727470;190;918952;-66
2020/12/08 13:53:38;;;;;;;9.23;6.20;;;;;;;;;;727186;190;919677;-65
2020/12/08 13:56:04;;;;;;;6.80;6.00;;;;;;;;;;731282;190;903795;-65
2020/12/08 13:58:32;;;;;;;10.70;7.60;;;;;;;;;;728868;189;915168;-65
2020/12/08 14:00:57;;;;;;;6.10;5.22;;;;;;;;;;733521;190;920793;-65
2020/12/08 14:03:23;;;;;;;9.60;7.03;;;;;;;;;;732095;188;1156485;-65
2020/12/08 14:05:53;;;;;;;7.57;5.97;;;;;;;;;;736131;188;918678;-65
2020/12/08 14:08:16;;;;;;;7.17;6.33;;;;;;;;;;727454;190;920161;-65
2020/12/08 14:10:42;;;;;;;8.30;6.23;;;;;;;;;;729811;189;919792;-65
2020/12/08 14:13:08;;;;;;;7.50;5.90;;;;;;;;;;734913;190;918879;-64
2020/12/08 14:15:34;;;;;;;7.93;6.33;;;;;;;;;;731914;189;919794;-64